Time;durP1;ratioP1;P1;durP2;ratioP2;P2;SDS_P1;SDS_P2;PMS_P1;PMS_P2;Temp;Humidity;BMP_temperature;BMP_pressure;BME280_temperature;BME280_humidity;BME280_pressure;Samples;Min_cycle;Max_cycle;Signal;HPM_P1;HPM_P2
2021/06/13 00:02:04;;;;;;;6.77;4.43;;;16.00;98.30;;;;;;4174582;28;20570;-83
2021/06/13 00:04:08;;;;;;;10.17;5.33;;;16.00;98.30;;;;;;4182156;28;20830;-83
2021/06/13 00:06:10;;;;;;;11.40;4.67;;;16.00;98.30;;;;;;4171995;28;20531;-83
2021/06/13 00:08:13;;;;;;;8.47;4.60;;;16.10;98.30;;;;;;4180335;28;20474;-83
2021/06/13 00:10:17;;;;;;;11.77;4.97;;;16.10;98.30;;;;;;4175302;28;20469;-84
2021/06/13 00:12:19;;;;;;;12.77;4.80;;;16.10;98.30;;;;;;4172213;28;20496;-83
2021/06/13 00:14:23;;;;;;;7.20;4.70;;;16.10;98.30;;;;;;4172481;28;20459;-83
2021/06/13 00:16:26;;;;;;;7.80;5.23;;;16.00;98.30;;;;;;4176577;28;20837;-83
2021/06/13 00:18:28;;;;;;;7.33;4.70;;;15.90;98.30;;;;;;4172576;28;20472;-83
2021/06/13 00:20:32;;;;;;;8.83;4.63;;;15.70;98.30;;;;;;4177534;28;20483;-83
2021/06/13 00:22:34;;;;;;;11.23;6.63;;;15.80;98.30;;;;;;4171677;28;20496;-83
2021/06/13 00:24:37;;;;;;;89.50;51.17;;;15.70;98.30;;;;;;4180030;28;21064;-83
2021/06/13 00:26:40;;;;;;;64.27;39.40;;;15.70;98.30;;;;;;4179921;28;20986;-83
2021/06/13 00:28:42;;;;;;;22.77;12.73;;;15.70;98.30;;;;;;4181392;28;20821;-83
2021/06/13 00:30:45;;;;;;;13.63;5.93;;;15.90;98.30;;;;;;4181593;28;20471;-83
2021/06/13 00:32:48;;;;;;;14.40;5.37;;;15.90;98.30;;;;;;4181625;28;20488;-82
2021/06/13 00:34:50;;;;;;;7.20;4.90;;;15.80;98.30;;;;;;4178543;28;20479;-83
2021/06/13 00:36:54;;;;;;;10.43;4.67;;;15.90;98.30;;;;;;4174510;28;20467;-83
2021/06/13 00:38:57;;;;;;;12.80;5.07;;;15.90;98.30;;;;;;4176405;28;20470;-83
2021/06/13 00:40:59;;;;;;;6.97;4.40;;;15.90;98.30;;;;;;4172714;28;20571;-82
2021/06/13 00:43:02;;;;;;;8.77;4.03;;;15.90;98.30;;;;;;4172722;28;20558;-82
2021/06/13 00:45:07;;;;;;;9.60;4.47;;;15.90;98.30;;;;;;4173790;28;20484;-82
2021/06/13 00:47:10;;;;;;;11.53;5.00;;;15.90;98.30;;;;;;4171585;28;20472;-82
2021/06/13 00:49:12;;;;;;;6.70;4.67;;;15.80;98.30;;;;;;4176790;28;20474;-82
2021/06/13 00:51:15;;;;;;;10.47;4.70;;;15.60;98.30;;;;;;4174529;28;20498;-82
2021/06/13 00:53:19;;;;;;;8.10;4.23;;;15.60;98.30;;;;;;4178158;28;20469;-82
2021/06/13 00:55:22;;;;;;;12.10;4.90;;;15.50;98.30;;;;;;4169613;28;20835;-82
2021/06/13 00:57:25;;;;;;;11.67;4.30;;;15.60;98.30;;;;;;4177350;28;20472;-82
2021/06/13 00:59:27;;;;;;;8.60;4.60;;;15.60;98.30;;;;;;4171459;28;20480;-82
2021/06/13 01:01:30;;;;;;;10.83;4.80;;;15.60;98.30;;;;;;4178039;28;20498;-82
2021/06/13 01:03:32;;;;;;;8.40;4.30;;;15.60;98.30;;;;;;4174543;28;20503;-82
2021/06/13 01:05:35;;;;;;;16.07;5.80;;;15.60;98.30;;;;;;4172861;28;20484;-82
2021/06/13 01:07:45;;;;;;;8.57;3.73;;;15.50;98.30;;;;;;4176302;28;20965;-82
2021/06/13 01:09:52;;;;;;;8.77;4.43;;;15.40;98.30;;;;;;4175645;28;20594;-82
2021/06/13 01:11:58;;;;;;;9.77;5.60;;;15.50;98.30;;;;;;4167545;28;20492;-82
2021/06/13 01:14:06;;;;;;;6.80;4.17;;;15.40;98.30;;;;;;4171682;28;20458;-83
2021/06/13 01:16:12;;;;;;;10.00;4.87;;;15.50;98.30;;;;;;4181278;28;20997;-83
2021/06/13 01:18:22;;;;;;;9.20;4.50;;;15.50;98.30;;;;;;4178710;28;20471;-82
2021/06/13 01:20:27;;;;;;;9.30;4.20;;;15.40;98.30;;;;;;4174348;28;20487;-82
2021/06/13 01:22:39;;;;;;;10.53;4.20;;;15.40;98.30;;;;;;4180406;28;20579;-82
2021/06/13 01:24:55;;;;;;;9.63;3.97;;;15.40;98.30;;;;;;4174849;28;20546;-82
2021/06/13 01:27:15;;;;;;;10.00;4.80;;;15.30;98.30;;;;;;4166411;28;20498;-83
2021/06/13 01:29:23;;;;;;;7.73;4.60;;;15.30;98.30;;;;;;4176180;28;20487;-82
2021/06/13 01:31:28;;;;;;;10.07;4.20;;;15.20;98.30;;;;;;4180481;28;20483;-82
2021/06/13 01:33:33;;;;;;;7.13;4.07;;;15.20;98.30;;;;;;4176960;28;20460;-82
2021/06/13 01:35:36;;;;;;;9.63;4.63;;;15.10;98.30;;;;;;4176626;28;21054;-82
2021/06/13 01:37:40;;;;;;;8.57;4.60;;;15.10;98.30;;;;;;4172217;28;20519;-82
2021/06/13 01:39:45;;;;;;;10.63;5.40;;;15.10;98.30;;;;;;4175698;28;20468;-82
2021/06/13 01:41:49;;;;;;;9.20;5.07;;;15.10;98.30;;;;;;4180633;28;20484;-82
2021/06/13 01:43:54;;;;;;;10.07;4.27;;;15.10;98.30;;;;;;4164719;28;20523;-82
2021/06/13 01:46:00;;;;;;;11.87;4.33;;;15.10;98.30;;;;;;4171906;28;20479;-83
2021/06/13 01:48:03;;;;;;;7.13;4.60;;;15.00;98.30;;;;;;4177268;28;20482;-82
2021/06/13 01:50:07;;;;;;;9.10;4.47;;;15.00;98.30;;;;;;4177875;28;21057;-82
2021/06/13 01:52:13;;;;;;;8.33;4.17;;;15.00;98.30;;;;;;4175257;28;20488;-83
2021/06/13 01:54:18;;;;;;;11.60;4.47;;;15.10;98.30;;;;;;4172674;28;20563;-82
2021/06/13 01:56:21;;;;;;;11.50;4.80;;;15.10;98.30;;;;;;4174320;28;20476;-83
2021/06/13 01:58:25;;;;;;;10.10;4.17;;;15.00;98.30;;;;;;4175943;28;20465;-82
2021/06/13 02:00:28;;;;;;;8.37;5.00;;;14.90;98.30;;;;;;4178154;28;20497;-82
2021/06/13 02:02:33;;;;;;;12.17;4.03;;;15.00;98.30;;;;;;4176233;28;20502;-82
2021/06/13 02:04:37;;;;;;;12.37;4.80;;;14.90;98.30;;;;;;4171864;28;21297;-83
2021/06/13 02:06:46;;;;;;;10.97;4.60;;;15.00;98.30;;;;;;4176325;28;20876;-82
2021/06/13 02:08:49;;;;;;;6.13;4.13;;;14.90;98.30;;;;;;4179299;28;20459;-83
2021/06/13 02:10:53;;;;;;;11.13;5.63;;;15.00;98.30;;;;;;4175166;28;20473;-82
2021/06/13 02:12:57;;;;;;;9.33;4.60;;;15.00;98.30;;;;;;4168486;28;20489;-82
2021/06/13 02:15:01;;;;;;;11.83;4.37;;;15.00;98.30;;;;;;4177276;28;20466;-82
2021/06/13 02:17:05;;;;;;;7.40;3.97;;;15.00;98.30;;;;;;4178933;28;20476;-82
2021/06/13 02:19:10;;;;;;;10.27;4.90;;;15.00;98.30;;;;;;4179723;28;20463;-82
2021/06/13 02:21:13;;;;;;;7.70;4.10;;;15.00;98.30;;;;;;4179024;28;20479;-82
2021/06/13 02:23:16;;;;;;;10.27;4.90;;;15.00;98.30;;;;;;4176152;28;20511;-82
2021/06/13 02:25:20;;;;;;;9.40;4.90;;;15.10;98.30;;;;;;4175306;28;20463;-82
2021/06/13 02:27:26;;;;;;;8.30;4.23;;;15.20;98.30;;;;;;4175814;28;20863;-83
2021/06/13 02:29:30;;;;;;;11.07;5.80;;;15.30;98.30;;;;;;4174951;28;20468;-82
2021/06/13 02:31:34;;;;;;;8.50;4.20;;;15.30;98.30;;;;;;4172407;28;20819;-82
2021/06/13 02:33:40;;;;;;;8.47;3.90;;;15.30;98.30;;;;;;4168159;28;20585;-82
2021/06/13 02:35:47;;;;;;;9.43;3.43;;;15.30;98.30;;;;;;4172549;28;20480;-82
2021/06/13 02:37:51;;;;;;;10.13;4.40;;;15.20;98.30;;;;;;4172932;28;20466;-82
2021/06/13 02:39:54;;;;;;;9.60;4.30;;;15.30;98.30;;;;;;4179271;28;20456;-82
2021/06/13 02:41:56;;;;;;;9.40;4.73;;;15.30;98.30;;;;;;4176248;28;20500;-82
2021/06/13 02:43:59;;;;;;;10.17;4.10;;;15.30;98.30;;;;;;4179769;28;20475;-82
2021/06/13 02:46:02;;;;;;;9.17;4.00;;;15.30;98.30;;;;;;4166911;28;20473;-83
2021/06/13 02:48:05;;;;;;;11.10;3.87;;;15.30;98.30;;;;;;4171431;28;20592;-82
2021/06/13 02:50:09;;;;;;;8.53;3.97;;;15.20;98.30;;;;;;4172753;28;20466;-82
2021/06/13 02:52:24;;;;;;;9.03;4.23;;;15.20;98.30;;;;;;4177567;28;20500;-82
2021/06/13 02:54:28;;;;;;;6.77;3.87;;;15.20;98.30;;;;;;4177174;28;20464;-82
2021/06/13 02:56:34;;;;;;;11.67;4.20;;;15.10;98.30;;;;;;4168741;28;20471;-83
2021/06/13 02:58:42;;;;;;;14.70;4.60;;;15.10;98.30;;;;;;4173299;28;20467;-83
2021/06/13 03:00:48;;;;;;;8.70;3.93;;;15.10;98.30;;;;;;4173017;28;20496;-82
2021/06/13 03:02:54;;;;;;;10.40;4.03;;;15.10;98.30;;;;;;4173762;28;20492;-82
2021/06/13 03:05:00;;;;;;;13.30;4.60;;;15.10;98.30;;;;;;4170873;28;20474;-82
2021/06/13 03:07:04;;;;;;;15.00;5.50;;;15.10;98.30;;;;;;4179594;28;20459;-82
2021/06/13 03:09:09;;;;;;;10.23;4.33;;;15.10;98.30;;;;;;4170647;28;20473;-82
2021/06/13 03:11:12;;;;;;;11.53;4.17;;;15.20;98.30;;;;;;4176478;28;20742;-82
2021/06/13 03:13:17;;;;;;;8.73;4.37;;;15.20;98.30;;;;;;4173507;28;20486;-82
2021/06/13 03:15:20;;;;;;;8.33;4.00;;;15.30;98.30;;;;;;4169794;28;20466;-82
2021/06/13 03:17:24;;;;;;;12.00;5.00;;;15.40;98.30;;;;;;4175714;28;20484;-83
2021/06/13 03:19:29;;;;;;;15.97;5.20;;;15.40;98.30;;;;;;4173162;28;20472;-82
2021/06/13 03:21:31;;;;;;;8.63;4.40;;;15.30;98.30;;;;;;4167864;28;20492;-84
2021/06/13 03:23:34;;;;;;;8.10;4.30;;;15.30;98.30;;;;;;4170864;28;20472;-82
2021/06/13 03:25:38;;;;;;;14.23;6.83;;;15.20;98.30;;;;;;4172296;28;20464;-83
2021/06/13 03:27:43;;;;;;;14.50;5.33;;;15.30;98.30;;;;;;4175141;28;20464;-82
2021/06/13 03:29:47;;;;;;;9.50;4.40;;;15.30;98.30;;;;;;4173281;28;20452;-82
2021/06/13 03:31:51;;;;;;;11.10;6.30;;;15.30;98.30;;;;;;4175086;28;20844;-83
2021/06/13 03:33:55;;;;;;;13.57;4.60;;;15.30;98.30;;;;;;4170956;28;20480;-82
2021/06/13 03:35:59;;;;;;;6.90;3.93;;;15.40;98.30;;;;;;4179931;28;20502;-83
2021/06/13 03:38:03;;;;;;;13.10;4.57;;;15.40;98.30;;;;;;4177722;28;20474;-83
2021/06/13 03:40:08;;;;;;;10.23;4.37;;;15.30;98.30;;;;;;4171468;28;21287;-82
2021/06/13 03:42:14;;;;;;;7.70;4.10;;;15.40;98.30;;;;;;4177380;28;20494;-83
2021/06/13 03:44:17;;;;;;;6.20;4.33;;;15.50;98.30;;;;;;4177744;28;20472;-82
2021/06/13 03:46:21;;;;;;;8.93;4.70;;;15.50;98.30;;;;;;4177795;28;20793;-82
2021/06/13 03:48:26;;;;;;;13.10;4.47;;;15.30;98.30;;;;;;4179203;28;20511;-83
2021/06/13 03:50:29;;;;;;;10.10;4.80;;;15.40;98.30;;;;;;4175463;28;20476;-82
2021/06/13 03:52:33;;;;;;;8.97;4.03;;;15.40;98.30;;;;;;4174769;28;20494;-82
2021/06/13 03:54:38;;;;;;;10.43;6.20;;;15.40;98.30;;;;;;4174851;28;20465;-83
2021/06/13 03:56:44;;;;;;;17.10;5.23;;;15.40;98.30;;;;;;4169197;28;20854;-83
2021/06/13 03:58:50;;;;;;;10.10;4.83;;;15.40;98.30;;;;;;4173407;28;20469;-82
2021/06/13 04:00:55;;;;;;;8.40;4.60;;;15.40;98.30;;;;;;4175500;28;20548;-83
2021/06/13 04:03:00;;;;;;;9.23;4.23;;;15.30;98.30;;;;;;4180172;28;20553;-82
2021/06/13 04:05:03;;;;;;;12.57;4.63;;;15.40;98.30;;;;;;4172517;28;20469;-82
2021/06/13 04:07:08;;;;;;;11.07;4.70;;;15.40;98.30;;;;;;4172113;28;20464;-82
2021/06/13 04:09:12;;;;;;;13.20;5.47;;;15.40;98.30;;;;;;4174113;28;20487;-82
2021/06/13 04:11:16;;;;;;;10.80;4.30;;;15.40;98.30;;;;;;4175036;28;21037;-82
2021/06/13 04:13:20;;;;;;;9.17;4.60;;;15.40;98.30;;;;;;4173836;28;20468;-82
2021/06/13 04:15:25;;;;;;;10.03;6.70;;;15.40;98.30;;;;;;4174014;28;20480;-83
2021/06/13 04:17:29;;;;;;;13.50;4.60;;;15.50;98.30;;;;;;4169808;28;20460;-84
2021/06/13 04:19:33;;;;;;;12.30;4.60;;;15.50;98.30;;;;;;4176937;28;20468;-83
2021/06/13 04:21:36;;;;;;;11.13;5.07;;;15.50;98.30;;;;;;4177330;28;20488;-82
2021/06/13 04:23:41;;;;;;;10.20;4.53;;;15.70;98.30;;;;;;4173310;28;20468;-82
2021/06/13 04:25:44;;;;;;;11.27;4.60;;;15.50;98.30;;;;;;4171080;28;20464;-83
2021/06/13 04:27:49;;;;;;;8.40;4.20;;;15.50;98.30;;;;;;4170818;28;20482;-82
2021/06/13 04:29:52;;;;;;;7.90;4.07;;;15.60;98.30;;;;;;4168223;28;20464;-82
2021/06/13 04:31:56;;;;;;;11.60;5.47;;;15.50;98.30;;;;;;4172668;28;20489;-82
2021/06/13 04:33:59;;;;;;;11.80;4.57;;;15.40;98.30;;;;;;4174518;28;21002;-83
2021/06/13 04:36:03;;;;;;;12.10;4.53;;;15.40;98.30;;;;;;4166499;28;20590;-82
2021/06/13 04:38:06;;;;;;;9.33;4.87;;;15.40;98.30;;;;;;4180921;28;20464;-83
2021/06/13 04:40:10;;;;;;;10.70;5.00;;;15.60;98.30;;;;;;4176286;28;20504;-83
2021/06/13 04:42:13;;;;;;;8.83;4.73;;;15.60;98.30;;;;;;4174990;28;20492;-83
2021/06/13 04:44:16;;;;;;;13.10;4.73;;;15.50;98.30;;;;;;4181443;28;20949;-82
2021/06/13 04:46:25;;;;;;;10.20;4.77;;;15.40;98.30;;;;;;4174692;28;20468;-82
2021/06/13 04:48:29;;;;;;;14.70;5.03;;;15.40;98.30;;;;;;4172139;28;20469;-83
2021/06/13 04:50:33;;;;;;;11.60;5.10;;;15.40;98.30;;;;;;4173471;28;20470;-82
2021/06/13 04:52:38;;;;;;;12.57;4.77;;;15.40;98.30;;;;;;4179542;28;21226;-83
2021/06/13 04:54:53;;;;;;;8.90;4.40;;;15.50;98.30;;;;;;4176378;28;20493;-83
2021/06/13 04:57:22;;;;;;;10.30;5.07;;;15.50;98.30;;;;;;4172488;28;20464;-82
2021/06/13 04:59:25;;;;;;;10.03;5.53;;;15.50;98.30;;;;;;4152295;28;20470;-82
2021/06/13 05:01:28;;;;;;;11.27;5.17;;;15.50;98.30;;;;;;4181359;28;20507;-82
2021/06/13 05:03:32;;;;;;;12.83;5.17;;;15.60;98.30;;;;;;4173939;28;20500;-83
2021/06/13 05:05:35;;;;;;;14.73;5.93;;;15.70;98.30;;;;;;4173040;28;21153;-82
2021/06/13 05:07:39;;;;;;;11.33;4.87;;;15.70;98.30;;;;;;4167840;28;20469;-83
2021/06/13 05:09:44;;;;;;;14.53;5.30;;;15.60;98.30;;;;;;4168085;28;21015;-82
2021/06/13 05:11:47;;;;;;;12.77;4.67;;;15.60;98.30;;;;;;4166240;28;20488;-82
2021/06/13 05:13:50;;;;;;;9.47;5.20;;;15.60;98.30;;;;;;4180679;28;20812;-82
2021/06/13 05:15:52;;;;;;;7.53;4.97;;;15.70;98.30;;;;;;4175152;28;20479;-83
2021/06/13 05:17:55;;;;;;;13.33;5.13;;;15.70;98.30;;;;;;4173274;28;20474;-83
2021/06/13 05:20:00;;;;;;;10.43;5.00;;;15.70;98.30;;;;;;4177739;28;20800;-83
2021/06/13 05:22:06;;;;;;;13.83;4.83;;;15.70;98.30;;;;;;4174840;28;20492;-82
2021/06/13 05:24:09;;;;;;;10.77;6.30;;;15.70;98.30;;;;;;4175770;28;20460;-82
2021/06/13 05:26:12;;;;;;;17.90;5.33;;;15.70;98.30;;;;;;4180886;28;20460;-82
2021/06/13 05:28:15;;;;;;;11.70;5.00;;;15.70;98.30;;;;;;4174811;28;20461;-82
2021/06/13 05:30:19;;;;;;;10.83;4.97;;;15.60;98.30;;;;;;4180947;28;20463;-84
2021/06/13 05:32:22;;;;;;;10.33;5.10;;;15.50;98.30;;;;;;4177196;28;20583;-83
2021/06/13 05:34:25;;;;;;;8.13;5.83;;;15.60;98.30;;;;;;4181498;28;20482;-82
2021/06/13 05:36:29;;;;;;;11.17;5.13;;;15.70;98.30;;;;;;4165469;28;20838;-82
2021/06/13 05:38:32;;;;;;;8.03;4.60;;;15.70;98.30;;;;;;4180319;28;20869;-82
2021/06/13 05:40:36;;;;;;;12.10;5.40;;;15.60;98.30;;;;;;4170133;28;20983;-82
2021/06/13 05:42:39;;;;;;;13.57;6.20;;;15.60;98.30;;;;;;4174864;28;20534;-82
2021/06/13 05:44:44;;;;;;;10.70;5.77;;;15.60;98.30;;;;;;4169318;28;20468;-82
2021/06/13 05:46:47;;;;;;;11.10;6.27;;;15.60;98.30;;;;;;4180376;28;20491;-82
2021/06/13 05:48:50;;;;;;;12.90;5.70;;;15.60;98.30;;;;;;4179678;28;20556;-82
2021/06/13 05:50:53;;;;;;;13.20;5.30;;;15.70;98.30;;;;;;4177459;28;20460;-83
2021/06/13 05:52:58;;;;;;;11.40;5.23;;;15.70;98.30;;;;;;4175288;28;20488;-83
2021/06/13 05:55:02;;;;;;;9.87;5.30;;;15.80;98.30;;;;;;4171269;28;20466;-82
2021/06/13 05:57:06;;;;;;;14.63;5.20;;;15.80;98.30;;;;;;4173242;28;20465;-83
2021/06/13 05:59:08;;;;;;;11.37;5.80;;;15.80;98.30;;;;;;4172749;28;20457;-82
2021/06/13 06:01:11;;;;;;;11.30;5.10;;;15.90;98.30;;;;;;4175395;28;20459;-83
2021/06/13 06:03:17;;;;;;;21.60;10.40;;;15.90;98.30;;;;;;4180662;28;20527;-82
2021/06/13 06:05:22;;;;;;;22.90;13.60;;;15.90;98.30;;;;;;4179204;28;20478;-83
2021/06/13 06:07:25;;;;;;;12.67;6.20;;;15.90;98.30;;;;;;4179232;28;20467;-83
2021/06/13 06:09:29;;;;;;;11.63;6.30;;;15.90;98.30;;;;;;4179172;28;20464;-83
2021/06/13 06:11:34;;;;;;;12.33;5.50;;;16.00;98.30;;;;;;4164004;28;20500;-82
2021/06/13 06:13:37;;;;;;;10.50;5.70;;;16.00;98.30;;;;;;4166644;28;20493;-83
2021/06/13 06:15:41;;;;;;;25.50;14.80;;;16.10;98.30;;;;;;4177523;28;20479;-82
2021/06/13 06:17:45;;;;;;;21.70;12.80;;;16.10;98.30;;;;;;4166237;28;21000;-83
2021/06/13 06:19:48;;;;;;;43.77;25.40;;;16.20;98.30;;;;;;4178009;28;20518;-82
2021/06/13 06:21:51;;;;;;;11.90;8.60;;;16.30;98.30;;;;;;4163632;28;20485;-81
2021/06/13 06:23:54;;;;;;;13.83;5.80;;;16.30;98.30;;;;;;4164222;28;20492;-82
2021/06/13 06:25:59;;;;;;;12.10;6.47;;;16.40;98.30;;;;;;4171442;28;21013;-82
2021/06/13 06:28:02;;;;;;;13.20;6.20;;;16.50;98.30;;;;;;4163263;28;20472;-81
2021/06/13 06:30:06;;;;;;;13.10;6.17;;;16.60;98.30;;;;;;4163559;28;20472;-82
2021/06/13 06:32:10;;;;;;;9.10;6.00;;;16.50;98.30;;;;;;4172768;28;20476;-83
2021/06/13 06:34:13;;;;;;;13.07;5.87;;;16.50;98.30;;;;;;4175992;28;20479;-83
2021/06/13 06:36:16;;;;;;;14.57;5.30;;;16.50;98.30;;;;;;4163457;28;20559;-82
2021/06/13 06:38:19;;;;;;;10.80;6.80;;;16.50;98.30;;;;;;4171883;28;20476;-83
2021/06/13 06:40:22;;;;;;;11.83;6.07;;;16.40;98.30;;;;;;4176980;28;20955;-82
2021/06/13 06:42:27;;;;;;;21.43;13.63;;;16.40;98.30;;;;;;4167732;28;20490;-83
2021/06/13 06:44:32;;;;;;;19.27;11.00;;;16.40;98.30;;;;;;4178816;28;21002;-88
2021/06/13 06:46:36;;;;;;;18.60;10.73;;;16.40;98.30;;;;;;4165909;28;20465;-87
2021/06/13 06:48:39;;;;;;;16.00;7.07;;;16.40;98.30;;;;;;4176184;28;20464;-88
2021/06/13 06:50:42;;;;;;;10.93;6.53;;;16.60;98.30;;;;;;4173375;28;20530;-86
2021/06/13 06:52:45;;;;;;;18.17;6.30;;;16.80;98.30;;;;;;4165469;28;20516;-88
2021/06/13 06:54:54;;;;;;;11.47;7.30;;;17.00;98.30;;;;;;4163260;28;20484;-89
2021/06/13 06:57:00;;;;;;;21.93;13.97;;;17.20;98.20;;;;;;4174288;28;20464;-88
2021/06/13 06:59:04;;;;;;;14.00;8.87;;;17.20;97.70;;;;;;4166295;28;20503;-87
2021/06/13 07:01:08;;;;;;;10.70;6.50;;;17.20;97.80;;;;;;4176968;28;20464;-88
2021/06/13 07:03:12;;;;;;;18.60;6.20;;;17.20;97.50;;;;;;4173795;28;20571;-87
2021/06/13 07:05:15;;;;;;;10.13;5.70;;;17.30;97.90;;;;;;4163408;28;20902;-86
2021/06/13 07:07:18;;;;;;;11.97;6.00;;;17.30;97.40;;;;;;4176486;28;20504;-85
2021/06/13 07:09:21;;;;;;;11.60;5.30;;;17.10;97.90;;;;;;4171158;28;20456;-85
2021/06/13 07:11:24;;;;;;;11.73;5.73;;;16.80;98.30;;;;;;4167927;28;20511;-85
2021/06/13 07:13:27;;;;;;;18.60;6.80;;;16.60;98.30;;;;;;4163017;28;20452;-86
2021/06/13 07:15:31;;;;;;;10.80;5.50;;;16.70;98.30;;;;;;4163709;28;20555;-86
2021/06/13 07:17:34;;;;;;;11.97;6.30;;;16.80;98.30;;;;;;4168277;28;20463;-86
2021/06/13 07:19:41;;;;;;;21.20;12.93;;;16.90;98.30;;;;;;4171987;28;20543;-86
2021/06/13 07:21:44;;;;;;;14.63;8.33;;;16.90;98.30;;;;;;4168963;28;20476;-85
2021/06/13 07:23:47;;;;;;;10.20;5.60;;;17.00;98.30;;;;;;4171106;28;20483;-84
2021/06/13 07:25:51;;;;;;;11.50;5.83;;;17.10;98.20;;;;;;4172540;28;20460;-84
2021/06/13 07:27:54;;;;;;;11.63;5.60;;;17.00;98.30;;;;;;4167819;28;20543;-85
2021/06/13 07:29:57;;;;;;;12.77;5.40;;;17.00;98.30;;;;;;4174996;28;20470;-85
2021/06/13 07:32:01;;;;;;;6.43;4.77;;;16.90;98.30;;;;;;4170070;28;20495;-85
2021/06/13 07:34:04;;;;;;;10.53;5.63;;;16.80;98.30;;;;;;4173777;28;20499;-84
2021/06/13 07:36:08;;;;;;;11.47;5.50;;;16.70;98.30;;;;;;4174469;28;20556;-85
2021/06/13 07:38:11;;;;;;;12.23;6.20;;;16.70;98.30;;;;;;4171444;28;20521;-85
2021/06/13 07:40:18;;;;;;;12.93;6.13;;;16.70;98.30;;;;;;4167528;28;20453;-86
2021/06/13 07:42:28;;;;;;;11.87;5.50;;;16.70;98.30;;;;;;4176932;28;20484;-85
2021/06/13 07:44:47;;;;;;;10.13;4.90;;;16.80;98.30;;;;;;4187194;28;20970;-84
2021/06/13 07:46:52;;;;;;;11.73;5.30;;;16.80;98.30;;;;;;4187100;28;20986;-83
2021/06/13 07:48:58;;;;;;;10.40;5.37;;;16.90;98.30;;;;;;4185124;28;20500;-85
2021/06/13 07:51:03;;;;;;;14.47;7.30;;;17.10;98.30;;;;;;4183145;28;20453;-85
2021/06/13 07:53:08;;;;;;;12.13;6.50;;;17.10;98.30;;;;;;4184277;28;20558;-85
2021/06/13 07:55:15;;;;;;;11.13;5.10;;;17.20;98.10;;;;;;4184131;28;20532;-85
2021/06/13 07:57:18;;;;;;;13.87;5.27;;;17.40;97.80;;;;;;4168088;28;20460;-86
2021/06/13 07:59:23;;;;;;;16.97;5.37;;;17.40;97.80;;;;;;4167862;28;21029;-86
2021/06/13 08:01:27;;;;;;;12.63;6.20;;;17.60;97.40;;;;;;4172851;28;20661;-85
2021/06/13 08:03:30;;;;;;;10.50;5.87;;;17.70;97.20;;;;;;4171499;28;20490;-85
2021/06/13 08:05:35;;;;;;;10.13;5.20;;;17.80;97.20;;;;;;4176854;28;20502;-85
2021/06/13 08:07:39;;;;;;;14.57;6.10;;;18.00;96.60;;;;;;4175837;28;20896;-85
2021/06/13 08:09:42;;;;;;;11.90;5.80;;;18.00;95.50;;;;;;4175061;28;20922;-86
2021/06/13 08:11:45;;;;;;;9.87;5.40;;;18.00;95.40;;;;;;4172245;28;20492;-86
2021/06/13 08:13:48;;;;;;;13.57;6.03;;;17.90;95.20;;;;;;4174295;28;20495;-85
2021/06/13 08:15:52;;;;;;;23.97;16.47;;;17.70;95.20;;;;;;4175616;28;20543;-85
2021/06/13 08:17:55;;;;;;;17.90;10.27;;;17.60;95.80;;;;;;4174766;28;20499;-85
2021/06/13 08:19:58;;;;;;;14.67;7.20;;;17.50;95.80;;;;;;4176958;28;20499;-86
2021/06/13 08:22:05;;;;;;;11.10;5.57;;;17.50;96.10;;;;;;4173689;28;20571;-86
2021/06/13 08:24:09;;;;;;;8.13;5.03;;;17.60;96.30;;;;;;4174349;28;20483;-86
2021/06/13 08:26:12;;;;;;;14.30;5.93;;;17.60;95.80;;;;;;4174658;28;20559;-85
2021/06/13 08:28:15;;;;;;;13.60;5.77;;;17.70;95.20;;;;;;4176479;28;20471;-85
2021/06/13 08:30:19;;;;;;;10.07;5.50;;;17.80;95.00;;;;;;4173071;28;20564;-85
2021/06/13 08:32:22;;;;;;;9.97;5.60;;;18.00;94.40;;;;;;4176087;28;20592;-84
2021/06/13 08:34:25;;;;;;;8.73;4.80;;;18.10;93.90;;;;;;4171754;28;20482;-86
2021/06/13 08:36:29;;;;;;;11.83;5.77;;;18.00;93.90;;;;;;4176594;28;20466;-85
2021/06/13 08:38:39;;;;;;;9.07;6.10;;;17.80;95.30;;;;;;4174893;28;20460;-86
2021/06/13 08:40:42;;;;;;;12.00;6.20;;;17.70;96.00;;;;;;4172540;28;20885;-84
2021/06/13 08:42:46;;;;;;;11.10;5.43;;;17.80;96.30;;;;;;4174515;28;20538;-83
2021/06/13 08:44:49;;;;;;;10.20;5.97;;;17.90;95.60;;;;;;4176782;28;20510;-85
2021/06/13 08:46:54;;;;;;;10.50;4.87;;;17.80;95.90;;;;;;4177323;28;20464;-85
2021/06/13 08:48:57;;;;;;;12.40;5.50;;;18.00;96.20;;;;;;4176883;28;20473;-83
2021/06/13 08:51:02;;;;;;;12.60;6.70;;;18.20;95.40;;;;;;4179623;28;20556;-83
2021/06/13 08:53:05;;;;;;;11.30;5.70;;;18.20;94.50;;;;;;4175025;28;20478;-83
2021/06/13 08:55:15;;;;;;;11.30;6.40;;;18.00;95.40;;;;;;4178297;28;20460;-83
2021/06/13 08:57:18;;;;;;;12.53;6.50;;;18.00;95.60;;;;;;4174369;28;20468;-83
2021/06/13 08:59:21;;;;;;;11.07;5.43;;;17.90;96.20;;;;;;4175811;28;20472;-84
2021/06/13 09:01:27;;;;;;;8.17;5.67;;;17.80;96.00;;;;;;4174051;28;20491;-84
2021/06/13 09:03:30;;;;;;;9.40;5.27;;;17.80;95.70;;;;;;4179927;28;20467;-83
2021/06/13 09:05:33;;;;;;;11.33;5.87;;;17.80;95.90;;;;;;4172503;28;20832;-82
2021/06/13 09:07:46;;;;;;;9.93;5.50;;;17.80;95.60;;;;;;4171664;28;20538;-83
2021/06/13 09:09:50;;;;;;;9.97;6.57;;;17.80;95.40;;;;;;4173924;28;20502;-83
